createdAt,value
2023-08-30T00:01:45.154Z,98875.09
2023-08-30T00:04:12.481Z,98867.16
2023-08-30T00:06:39.727Z,98868.88
2023-08-30T00:09:07.050Z,98872.34
2023-08-30T00:11:34.294Z,98870.56
2023-08-30T00:14:08.105Z,98873.16
2023-08-30T00:16:35.772Z,98866.94
2023-08-30T00:19:03.114Z,98879.31
2023-08-30T00:21:31.190Z,98880.19
2023-08-30T00:23:58.557Z,98878.44
2023-08-30T00:26:26.507Z,98881.06
2023-08-30T00:28:55.734Z,98879.31
2023-08-30T00:31:23.885Z,98873.22
2023-08-30T00:33:54.689Z,98875.06
2023-08-30T00:36:23.160Z,98885.69
2023-08-30T00:38:50.917Z,98877.78
2023-08-30T00:41:18.345Z,98890.09
2023-08-30T00:43:45.711Z,98884.81
2023-08-30T00:46:14.411Z,98883.94
2023-08-30T00:48:42.465Z,98881.25
2023-08-30T00:51:10.263Z,98886.59
2023-08-30T00:53:37.894Z,98889.25
2023-08-30T00:56:05.719Z,98883.06
2023-08-30T00:58:36.142Z,98884.78
2023-08-30T01:01:08.291Z,98877.75
2023-08-30T01:03:38.962Z,98877.75
2023-08-30T01:06:06.815Z,98882.13
2023-08-30T01:08:38.480Z,98882.13
2023-08-30T01:11:18.766Z,98883.91
2023-08-30T01:14:29.494Z,98887.41
2023-08-30T01:16:58.484Z,98883.03
2023-08-30T01:19:58.850Z,98888.28
2023-08-30T01:23:06.543Z,98882.91
2023-08-30T01:26:17.008Z,98882.03
2023-08-30T01:28:45.938Z,98881.16
2023-08-30T01:31:14.679Z,98884.63
2023-08-30T01:33:44.024Z,98881.06
2023-08-30T01:36:12.576Z,98886.38
2023-08-30T01:38:41.627Z,98873.19
2023-08-30T01:41:11.905Z,98878.47
2023-08-30T01:43:45.064Z,98874.09
2023-08-30T01:46:20.568Z,98874.13
2023-08-30T01:48:50.024Z,98879.41
2023-08-30T01:51:17.915Z,98881.19
2023-08-30T01:55:40.971Z,98875.94
2023-08-30T01:58:13.247Z,98876.81
2023-08-30T02:00:41.297Z,98878.44
2023-08-30T02:03:17.752Z,98879.38
2023-08-30T02:06:12.569Z,98883.78
2023-08-30T02:08:52.146Z,98884.63
2023-08-30T02:11:28.680Z,98882.00
2023-08-30T02:14:00.374Z,98885.44
2023-08-30T02:16:29.930Z,98881.91
2023-08-30T02:18:58.853Z,98886.28
2023-08-30T02:21:27.927Z,98876.63
2023-08-30T02:23:55.751Z,98875.75
2023-08-30T02:26:23.506Z,98879.28
2023-08-30T02:28:51.019Z,98874.88
2023-08-30T02:31:18.484Z,98883.72
2023-08-30T02:33:47.357Z,98876.66
2023-08-30T02:36:14.816Z,98874.84
2023-08-30T02:38:42.126Z,98882.69
2023-08-30T02:41:11.275Z,98879.22
2023-08-30T02:43:39.006Z,98882.72
2023-08-30T02:46:06.772Z,98877.41
2023-08-30T02:48:34.884Z,98884.47
2023-08-30T02:51:02.609Z,98882.63
2023-08-30T02:54:10.832Z,98883.50
2023-08-30T02:56:38.255Z,98883.53
2023-08-30T02:59:07.694Z,98887.22
2023-08-30T03:01:36.641Z,98891.69
2023-08-30T03:04:07.619Z,98889.06
2023-08-30T03:06:36.037Z,98887.34
2023-08-30T03:09:05.626Z,98881.16
2023-08-30T03:11:35.909Z,98889.03
2023-08-30T03:14:03.842Z,98892.56
2023-08-30T03:16:31.262Z,98892.63
2023-08-30T03:18:59.649Z,98889.09
2023-08-30T03:21:27.261Z,98890.03
2023-08-30T03:23:57.707Z,98890.06
2023-08-30T03:26:25.222Z,98890.09
2023-08-30T03:28:54.785Z,98894.50
2023-08-30T03:31:23.659Z,98894.50
2023-08-30T03:33:52.264Z,98890.97
2023-08-30T03:36:20.530Z,98885.72
2023-08-30T03:38:48.211Z,98886.66
2023-08-30T03:41:16.226Z,98883.13
2023-08-30T03:43:46.059Z,98881.38
2023-08-30T03:46:13.819Z,98877.88
2023-08-30T03:48:41.580Z,98876.13
2023-08-30T03:51:09.257Z,98884.03
2023-08-30T03:53:37.143Z,98876.06
2023-08-30T03:56:05.625Z,98876.03
2023-08-30T03:58:32.959Z,98883.06
2023-08-30T04:01:00.288Z,98880.41
2023-08-30T04:03:28.367Z,98883.03
2023-08-30T04:06:00.638Z,98877.78
2023-08-30T04:08:53.051Z,98877.78
2023-08-30T04:11:21.886Z,98883.06
2023-08-30T04:13:49.135Z,98881.41
2023-08-30T04:16:16.684Z,98882.31
2023-08-30T04:18:44.090Z,98877.06
2023-08-30T04:21:11.457Z,98883.28
2023-08-30T04:23:38.753Z,98890.34
2023-08-30T04:26:06.349Z,98897.22
2023-08-30T04:28:33.819Z,98890.13
2023-08-30T04:31:01.268Z,98899.91
2023-08-30T04:33:28.884Z,98897.28
2023-08-30T04:36:02.160Z,98893.75
2023-08-30T04:42:52.646Z,98905.94
2023-08-30T04:45:24.957Z,98902.44
2023-08-30T04:49:07.865Z,98900.72
2023-08-30T04:51:58.548Z,98907.81
2023-08-30T04:54:51.011Z,98904.28
2023-08-30T04:57:38.431Z,98911.28
2023-08-30T05:00:53.003Z,98908.63
2023-08-30T05:06:35.196Z,98916.63
2023-08-30T05:09:05.736Z,98914.97
2023-08-30T05:11:34.573Z,98920.22
2023-08-30T05:14:30.887Z,98926.44
2023-08-30T05:17:04.223Z,98929.97
2023-08-30T05:20:23.683Z,98935.25
2023-08-30T05:22:56.840Z,98932.59
2023-08-30T05:25:38.932Z,98931.72
2023-08-30T05:32:37.111Z,98937.88
2023-08-30T05:36:26.667Z,98938.03
2023-08-30T05:42:37.434Z,98938.94
2023-08-30T05:45:06.413Z,98953.06
2023-08-30T05:48:36.375Z,98942.53
2023-08-30T05:51:24.795Z,98943.38
2023-08-30T05:54:08.092Z,98941.66
2023-08-30T05:57:17.408Z,98939.91
2023-08-30T05:59:46.136Z,98934.66
2023-08-30T06:02:14.004Z,98939.03
2023-08-30T06:04:42.371Z,98941.69
2023-08-30T06:07:33.814Z,98935.47
2023-08-30T06:10:10.050Z,98933.72
2023-08-30T06:12:38.412Z,98933.75
2023-08-30T06:15:07.800Z,98946.09
2023-08-30T06:18:23.031Z,98946.09
2023-08-30T06:21:03.449Z,98948.78
2023-08-30T06:26:21.641Z,98949.81
2023-08-30T06:29:19.207Z,98952.38
2023-08-30T06:31:57.124Z,98958.53
2023-08-30T06:34:29.099Z,98964.75
2023-08-30T06:37:51.166Z,98957.84
2023-08-30T06:40:20.677Z,98957.91
2023-08-30T06:43:00.530Z,98958.84
2023-08-30T06:45:32.414Z,98954.41
2023-08-30T06:48:00.681Z,98957.06
2023-08-30T06:50:28.336Z,98958.88
2023-08-30T06:53:05.632Z,98951.81
2023-08-30T06:56:52.220Z,98946.53
2023-08-30T06:59:40.491Z,98949.16
2023-08-30T07:02:11.784Z,98948.34
2023-08-30T07:04:39.247Z,98948.34
2023-08-30T07:07:06.971Z,98952.78
2023-08-30T07:09:34.780Z,98952.78
2023-08-30T07:12:06.173Z,98966.03
2023-08-30T07:14:36.984Z,98965.16
2023-08-30T07:17:05.423Z,98965.19
2023-08-30T07:19:33.117Z,98966.09
2023-08-30T07:22:49.309Z,98964.34
2023-08-30T07:25:38.002Z,98977.59
2023-08-30T07:28:08.186Z,98975.81
2023-08-30T07:30:36.654Z,98977.59
2023-08-30T07:33:05.865Z,98978.47
2023-08-30T07:35:34.385Z,98980.25
2023-08-30T07:38:02.041Z,98976.72
2023-08-30T07:40:30.420Z,98973.19
2023-08-30T07:42:59.805Z,98980.25
2023-08-30T07:45:28.057Z,98986.41
2023-08-30T07:47:57.239Z,98987.31
2023-08-30T07:50:25.298Z,98985.56
2023-08-30T07:52:54.067Z,98982.91
2023-08-30T07:55:22.046Z,98989.97
2023-08-30T07:57:49.889Z,98994.38
2023-08-30T08:00:17.939Z,98985.56
2023-08-30T08:02:46.032Z,98990.84
2023-08-30T08:05:25.784Z,98997.91
2023-08-30T08:07:58.108Z,99000.56
2023-08-30T08:10:26.165Z,98995.25
2023-08-30T08:12:59.538Z,99002.31
2023-08-30T08:15:32.066Z,98991.69
2023-08-30T08:17:59.686Z,98997.88
2023-08-30T08:20:31.267Z,99001.41
2023-08-30T08:23:02.365Z,99007.59
2023-08-30T08:25:30.579Z,99005.84
2023-08-30T08:28:01.298Z,99011.13
2023-08-30T08:30:29.189Z,99010.22
2023-08-30T08:33:01.118Z,99017.28
2023-08-30T08:35:32.041Z,99016.41
2023-08-30T08:38:02.331Z,99006.63
2023-08-30T08:40:41.851Z,99017.19
2023-08-30T08:43:14.197Z,99014.56
2023-08-30T08:45:58.490Z,99015.47
2023-08-30T08:48:32.719Z,99023.38
2023-08-30T08:51:25.931Z,99019.84
2023-08-30T08:53:54.115Z,99016.38
2023-08-30T08:56:50.001Z,99026.97
2023-08-30T08:59:26.292Z,99028.69
2023-08-30T09:01:54.596Z,99026.94
2023-08-30T09:04:26.227Z,99029.56
2023-08-30T09:07:04.404Z,99031.28
2023-08-30T09:09:38.097Z,99035.69
2023-08-30T09:12:05.941Z,99031.28
2023-08-30T09:14:33.730Z,99032.97
2023-08-30T09:19:49.824Z,99028.44
2023-08-30T09:22:17.275Z,99034.56
2023-08-30T09:24:48.205Z,99035.41
2023-08-30T09:27:15.840Z,99030.09
2023-08-30T09:29:47.056Z,99027.41
2023-08-30T09:32:27.357Z,99028.25
2023-08-30T09:35:05.316Z,99026.50
2023-08-30T09:37:32.849Z,99026.50
2023-08-30T09:40:12.427Z,99026.50
2023-08-30T09:43:13.492Z,99021.94
2023-08-30T09:46:08.269Z,99020.16
2023-08-30T09:48:49.109Z,99009.44
2023-08-30T09:51:26.025Z,99005.91
2023-08-30T09:54:06.111Z,98997.88
2023-08-30T09:59:20.843Z,99010.22
2023-08-30T10:02:12.945Z,99018.97
2023-08-30T10:05:06.563Z,99017.09
2023-08-30T10:07:41.850Z,99014.28
2023-08-30T10:10:12.219Z,99018.34
2023-08-30T10:12:48.006Z,99012.97
2023-08-30T10:15:30.661Z,99007.56
2023-08-30T10:18:02.181Z,99011.22
2023-08-30T10:20:31.653Z,99007.31
2023-08-30T10:23:07.208Z,99005.75
2023-08-30T10:25:47.365Z,99004.50
2023-08-30T10:31:19.659Z,99003.84
2023-08-30T10:34:00.816Z,99003.50
2023-08-30T10:36:28.601Z,99010.31
2023-08-30T10:38:57.225Z,99009.00
2023-08-30T10:41:27.629Z,98992.47
2023-08-30T10:43:59.905Z,98993.41
2023-08-30T10:47:06.598Z,98989.06
2023-08-30T10:49:43.698Z,98986.09
2023-08-30T10:52:47.979Z,98988.00
2023-08-30T10:55:54.772Z,98991.78
2023-08-30T10:58:23.064Z,98987.38
2023-08-30T11:01:23.117Z,98985.69
2023-08-30T11:04:44.140Z,98979.66
2023-08-30T11:07:13.346Z,98979.50
2023-08-30T11:10:06.156Z,98975.97
2023-08-30T11:12:48.970Z,98980.72
2023-08-30T11:19:13.218Z,98981.28
2023-08-30T11:22:25.575Z,98981.41
2023-08-30T11:25:13.621Z,98973.00
2023-08-30T11:28:06.410Z,98974.50
2023-08-30T11:30:34.264Z,98970.91
2023-08-30T11:33:04.067Z,98968.91
2023-08-30T11:35:32.898Z,98970.38
2023-08-30T11:38:10.308Z,98965.53
2023-08-30T11:40:40.387Z,98967.56
2023-08-30T11:43:09.152Z,98961.31
2023-08-30T11:45:40.753Z,98966.19
2023-08-30T11:48:10.046Z,98961.34
2023-08-30T11:50:50.160Z,98954.81
2023-08-30T11:53:18.675Z,98951.94
2023-08-30T11:55:46.950Z,98958.44
2023-08-30T11:58:14.176Z,98957.47
2023-08-30T12:00:56.058Z,98953.50
2023-08-30T12:03:37.781Z,98959.78
2023-08-30T12:06:55.326Z,98955.66
2023-08-30T12:09:23.117Z,98956.13
2023-08-30T12:11:53.782Z,98966.06
2023-08-30T12:15:12.589Z,98954.53
2023-08-30T12:17:41.206Z,98956.56
2023-08-30T12:20:17.686Z,98952.50
2023-08-30T12:23:35.020Z,98945.72
2023-08-30T12:26:14.263Z,98949.06
2023-08-30T12:28:45.746Z,98949.25
2023-08-30T12:31:13.790Z,98944.53
2023-08-30T12:33:47.345Z,98940.38
2023-08-30T12:36:14.825Z,98942.09
2023-08-30T12:38:42.066Z,98946.69
2023-08-30T12:41:16.231Z,98951.28
2023-08-30T12:44:13.005Z,98944.88
2023-08-30T12:46:40.772Z,98945.38
2023-08-30T12:49:16.485Z,98944.97
2023-08-30T12:51:43.994Z,98945.50
2023-08-30T12:54:11.764Z,98949.94
2023-08-30T12:56:39.226Z,98945.06
2023-08-30T12:59:10.341Z,98947.47
2023-08-30T13:01:40.932Z,98945.34
2023-08-30T13:04:10.234Z,98949.03
2023-08-30T13:06:37.753Z,98948.69
2023-08-30T13:09:05.223Z,98942.47
2023-08-30T13:12:47.277Z,98944.63
2023-08-30T13:14:43.228Z,98941.53
2023-08-30T13:17:14.704Z,98938.81
2023-08-30T13:19:43.152Z,98937.81
2023-08-30T13:22:11.166Z,98937.47
2023-08-30T13:24:38.452Z,98929.16
2023-08-30T13:27:05.941Z,98932.94
2023-08-30T13:29:33.506Z,98932.28
2023-08-30T13:32:04.396Z,98933.81
2023-08-30T13:34:32.815Z,98922.94
2023-08-30T13:37:00.373Z,98924.13
2023-08-30T13:39:28.314Z,98923.94
2023-08-30T13:41:57.524Z,98929.88
2023-08-30T13:44:25.597Z,98927.03
2023-08-30T13:46:56.028Z,98922.38
2023-08-30T13:49:26.385Z,98927.66
2023-08-30T13:52:07.135Z,98922.06
2023-08-30T13:54:35.247Z,98912.69
2023-08-30T13:57:12.222Z,98921.88
2023-08-30T13:59:53.497Z,98921.78
2023-08-30T14:02:21.542Z,98925.78
2023-08-30T14:04:50.526Z,98919.28
2023-08-30T14:07:18.395Z,98925.88
2023-08-30T14:09:49.199Z,98925.00
2023-08-30T14:12:41.663Z,98915.69
2023-08-30T14:15:36.305Z,98915.28
2023-08-30T14:19:24.635Z,98917.59
2023-08-30T14:21:55.524Z,98923.66
2023-08-30T14:27:35.953Z,98925.81
2023-08-30T14:30:04.335Z,98928.81
2023-08-30T14:32:31.623Z,98930.03
2023-08-30T14:35:03.672Z,98936.00
2023-08-30T14:37:31.440Z,98931.59
2023-08-30T14:40:01.792Z,98926.59
2023-08-30T14:42:29.097Z,98934.88
2023-08-30T14:44:56.323Z,98925.75
2023-08-30T14:47:26.978Z,98931.22
2023-08-30T14:49:57.618Z,98923.88
2023-08-30T14:55:50.913Z,98926.94
2023-08-30T14:59:35.108Z,98927.94
2023-08-30T15:02:18.774Z,98935.47
2023-08-30T15:04:50.369Z,98933.09
2023-08-30T15:08:03.481Z,98938.09
2023-08-30T15:10:44.547Z,98942.00
2023-08-30T15:13:19.000Z,98949.03
2023-08-30T15:15:59.833Z,98953.50
2023-08-30T15:18:34.556Z,98949.72
2023-08-30T15:21:44.669Z,98948.97
2023-08-30T15:24:18.227Z,98950.44
2023-08-30T15:29:38.567Z,98955.03
2023-08-30T15:31:54.049Z,98956.63
2023-08-30T15:34:51.680Z,98952.09
2023-08-30T15:37:20.851Z,98953.28
2023-08-30T15:40:38.257Z,98952.00
2023-08-30T15:47:17.016Z,98958.72
2023-08-30T15:49:54.998Z,98962.63
2023-08-30T15:56:49.289Z,98965.50
2023-08-30T15:59:17.017Z,98971.44
2023-08-30T16:01:44.371Z,98964.00
2023-08-30T16:04:54.576Z,98966.09
2023-08-30T16:07:21.998Z,98960.72
2023-08-30T16:09:49.412Z,98968.84
2023-08-30T16:12:16.765Z,98969.63
2023-08-30T16:14:43.991Z,98974.13
2023-08-30T16:17:11.289Z,98967.16
2023-08-30T16:19:38.504Z,98970.31
2023-08-30T16:22:05.684Z,98970.44
2023-08-30T16:24:33.930Z,98959.22
2023-08-30T16:27:01.334Z,98961.38
2023-08-30T16:29:28.888Z,98961.13
2023-08-30T16:31:56.342Z,98969.81
2023-08-30T16:34:23.685Z,98973.16
2023-08-30T16:36:51.323Z,98967.44
2023-08-30T16:39:18.936Z,98964.31
2023-08-30T16:41:46.425Z,98968.88
2023-08-30T16:44:13.669Z,98969.13
2023-08-30T16:46:40.947Z,98967.72
2023-08-30T16:49:10.805Z,98964.69
2023-08-30T16:51:38.890Z,98962.03
2023-08-30T16:54:07.164Z,98965.69
2023-08-30T16:56:34.377Z,98968.81
2023-08-30T16:59:01.624Z,98972.31
2023-08-30T17:01:28.897Z,98970.66
2023-08-30T17:03:56.168Z,98972.00
2023-08-30T17:06:23.401Z,98981.63
2023-08-30T17:08:50.763Z,98980.91
2023-08-30T17:11:18.003Z,98976.69
2023-08-30T17:13:45.310Z,98989.81
2023-08-30T17:16:12.544Z,98983.31
2023-08-30T17:18:40.783Z,98984.56
2023-08-30T17:21:11.220Z,98995.50
2023-08-30T17:23:39.971Z,99002.84
2023-08-30T17:26:07.905Z,98999.69
2023-08-30T17:28:36.841Z,99002.47
2023-08-30T17:31:06.942Z,99007.03
2023-08-30T17:33:36.178Z,99003.66
2023-08-30T17:36:04.901Z,99007.53
2023-08-30T17:38:37.308Z,99000.56
2023-08-30T17:41:12.033Z,99011.63
2023-08-30T17:43:39.545Z,99018.69
2023-08-30T17:46:07.106Z,99017.22
2023-08-30T17:48:35.259Z,99016.78
2023-08-30T17:51:04.855Z,99019.91
2023-08-30T17:53:32.358Z,99021.47
2023-08-30T17:56:00.997Z,99029.63
2023-08-30T17:58:29.051Z,99026.31
2023-08-30T18:00:59.020Z,99037.22
2023-08-30T18:03:30.114Z,99040.25
2023-08-30T18:06:05.496Z,99038.78
2023-08-30T18:08:32.752Z,99047.06
2023-08-30T18:10:59.929Z,99042.00
2023-08-30T18:13:27.148Z,99040.44
2023-08-30T18:15:54.604Z,99052.19
2023-08-30T18:18:21.928Z,99050.72
2023-08-30T18:20:49.134Z,99051.88
2023-08-30T18:23:17.268Z,99055.66
2023-08-30T18:25:44.484Z,99065.66
2023-08-30T18:28:11.964Z,99067.63
2023-08-30T18:30:39.224Z,99071.28
2023-08-30T18:33:06.544Z,99074.06
2023-08-30T18:35:34.011Z,99077.66
2023-08-30T18:38:04.084Z,99078.63
2023-08-30T18:40:31.580Z,99091.13
2023-08-30T18:42:58.984Z,99088.63
2023-08-30T18:45:26.184Z,99090.50
2023-08-30T18:47:53.521Z,99096.00
2023-08-30T18:50:20.865Z,99097.84
2023-08-30T18:52:48.351Z,99106.88
2023-08-30T18:55:16.126Z,99111.38
2023-08-30T18:57:43.570Z,99112.38
2023-08-30T19:00:11.934Z,99116.84
2023-08-30T19:02:39.674Z,99120.47
2023-08-30T19:05:08.238Z,99122.28
2023-08-30T19:07:35.450Z,99132.03
2023-08-30T19:10:03.828Z,99123.22
2023-08-30T19:12:31.159Z,99141.94
2023-08-30T19:14:58.382Z,99143.72
2023-08-30T19:17:25.832Z,99146.50
2023-08-30T19:19:53.072Z,99150.09
2023-08-30T19:22:21.990Z,99158.09
2023-08-30T19:24:49.521Z,99161.63
2023-08-30T19:27:17.107Z,99162.50
2023-08-30T19:29:45.944Z,99162.50
2023-08-30T19:32:13.223Z,99159.00
2023-08-30T19:34:40.455Z,99164.31
2023-08-30T19:37:07.605Z,99164.34
2023-08-30T19:39:34.761Z,99167.88
2023-08-30T19:42:01.939Z,99172.34
2023-08-30T19:44:29.143Z,99172.34
2023-08-30T19:46:59.544Z,99183.00
2023-08-30T19:49:26.960Z,99179.44
2023-08-30T19:51:54.882Z,99176.78
2023-08-30T19:54:22.059Z,99183.94
2023-08-30T19:56:49.361Z,99184.84
2023-08-30T19:59:16.559Z,99181.31
2023-08-30T20:01:43.754Z,99181.31
2023-08-30T20:04:11.027Z,99180.47
2023-08-30T20:06:38.771Z,99186.69
2023-08-30T20:09:06.120Z,99185.84
2023-08-30T20:11:33.305Z,99192.06
2023-08-30T20:14:00.463Z,99194.72
2023-08-30T20:16:27.676Z,99198.28
2023-08-30T20:18:54.997Z,99192.97
2023-08-30T20:21:22.181Z,99200.06
2023-08-30T20:23:49.641Z,99203.66
2023-08-30T20:26:16.941Z,99201.03
2023-08-30T20:28:46.985Z,99198.41
2023-08-30T20:31:15.637Z,99200.19
2023-08-30T20:33:43.718Z,99209.06
2023-08-30T20:36:10.793Z,99205.53
2023-08-30T20:38:38.008Z,99221.50
2023-08-30T20:41:05.180Z,99227.69
2023-08-30T20:43:32.758Z,99232.09
2023-08-30T20:46:00.454Z,99234.72
2023-08-30T20:48:29.160Z,99232.03
2023-08-30T20:50:59.124Z,99238.28
2023-08-30T20:53:40.891Z,99243.63
2023-08-30T20:56:11.665Z,99238.31
2023-08-30T20:58:44.828Z,99240.09
2023-08-30T21:01:12.859Z,99251.63
2023-08-30T21:03:40.654Z,99253.38
2023-08-30T21:06:10.848Z,99257.84
2023-08-30T21:08:39.259Z,99258.69
2023-08-30T21:11:09.992Z,99261.38
2023-08-30T21:13:37.433Z,99262.25
2023-08-30T21:16:05.443Z,99256.94
2023-08-30T21:18:32.759Z,99264.00
2023-08-30T21:21:00.852Z,99261.38
2023-08-30T21:23:28.604Z,99267.56
2023-08-30T21:25:55.925Z,99262.25
2023-08-30T21:28:23.165Z,99264.91
2023-08-30T21:30:50.410Z,99271.13
2023-08-30T21:33:19.279Z,99269.34
2023-08-30T21:35:47.707Z,99268.47
2023-08-30T21:38:20.205Z,99271.13
2023-08-30T21:40:49.088Z,99273.78
2023-08-30T21:43:16.556Z,99276.44
2023-08-30T21:45:44.884Z,99281.75
2023-08-30T21:48:12.713Z,99276.44
2023-08-30T21:50:40.821Z,99282.59
2023-08-30T21:53:08.558Z,99280.81
2023-08-30T21:55:35.970Z,99294.09
2023-08-30T21:58:04.458Z,99288.75
2023-08-30T22:00:31.678Z,99293.16
2023-08-30T22:02:59.034Z,99292.31
2023-08-30T22:05:26.318Z,99296.72
2023-08-30T22:07:53.508Z,99294.91
2023-08-30T22:10:21.063Z,99298.41
2023-08-30T22:12:49.600Z,99293.97
2023-08-30T22:15:17.524Z,99301.00
2023-08-30T22:17:48.248Z,99306.28
2023-08-30T22:20:21.190Z,99303.63
2023-08-30T22:22:49.201Z,99310.72
2023-08-30T22:25:17.166Z,99306.28
2023-08-30T22:27:45.349Z,99310.72
2023-08-30T22:30:15.880Z,99316.84
2023-08-30T22:32:46.716Z,99311.56
2023-08-30T22:35:17.090Z,99311.53
2023-08-30T22:37:44.950Z,99314.22
2023-08-30T22:40:13.067Z,99316.84
2023-08-30T22:42:41.499Z,99313.28
2023-08-30T22:45:10.379Z,99311.50
2023-08-30T22:47:37.868Z,99320.31
2023-08-30T22:50:06.506Z,99320.28
2023-08-30T22:52:35.576Z,99318.53
2023-08-30T22:55:04.660Z,99318.53
2023-08-30T22:57:32.144Z,99313.22
2023-08-30T23:00:06.401Z,99322.03
2023-08-30T23:02:34.668Z,99321.13
2023-08-30T23:05:04.558Z,99318.44
2023-08-30T23:07:31.770Z,99323.75
2023-08-30T23:10:01.591Z,99322.88
2023-08-30T23:12:28.883Z,99327.28
2023-08-30T23:14:58.066Z,99321.97
2023-08-30T23:17:25.410Z,99328.13
2023-08-30T23:19:52.654Z,99328.16
2023-08-30T23:22:20.005Z,99342.25
2023-08-30T23:24:47.556Z,99341.34
2023-08-30T23:27:14.960Z,99338.72
2023-08-30T23:29:42.137Z,99336.91
2023-08-30T23:32:09.385Z,99338.63
2023-08-30T23:34:36.776Z,99336.84
2023-08-30T23:37:04.178Z,99336.75
2023-08-30T23:39:31.407Z,99333.19
2023-08-30T23:41:59.696Z,99338.47
2023-08-30T23:44:26.896Z,99338.47
2023-08-30T23:46:54.125Z,99333.16
2023-08-30T23:49:21.280Z,99340.19
2023-08-30T23:51:48.452Z,99342.75
2023-08-30T23:54:15.620Z,99345.34
2023-08-30T23:56:42.847Z,99348.00
2023-08-30T23:59:11.404Z,99343.59
